createdAt,value
2022-10-11T00:00:51.140Z,100.00
2022-10-11T00:03:34.167Z,100.00
2022-10-11T00:06:17.425Z,100.00
2022-10-11T00:09:01.154Z,100.00
2022-10-11T00:11:44.383Z,100.00
2022-10-11T00:14:29.103Z,100.00
2022-10-11T00:17:12.314Z,100.00
2022-10-11T00:19:55.343Z,100.00
2022-10-11T00:22:38.665Z,100.00
2022-10-11T00:25:21.534Z,100.00
2022-10-11T00:28:04.472Z,100.00
2022-10-11T00:30:49.215Z,100.00
2022-10-11T00:33:33.765Z,100.00
2022-10-11T00:36:19.254Z,100.00
2022-10-11T00:39:03.001Z,100.00
2022-10-11T00:41:49.441Z,100.00
2022-10-11T00:44:34.889Z,100.00
2022-10-11T00:47:20.289Z,100.00
2022-10-11T00:50:04.098Z,100.00
2022-10-11T00:52:55.013Z,100.00
2022-10-11T00:55:55.790Z,100.00
2022-10-11T00:58:57.174Z,100.00
2022-10-11T01:01:41.185Z,100.00
2022-10-11T01:04:23.585Z,100.00
2022-10-11T01:07:05.280Z,100.00
2022-10-11T01:09:47.902Z,100.00
2022-10-11T01:12:32.657Z,100.00
2022-10-11T01:15:22.127Z,100.00
2022-10-11T01:18:14.499Z,100.00
2022-10-11T01:21:06.956Z,100.00
2022-10-11T01:24:16.384Z,100.00
2022-10-11T01:27:19.113Z,100.00
2022-10-11T01:30:20.746Z,100.00
2022-10-11T01:33:13.606Z,100.00
2022-10-11T01:36:06.045Z,100.00
2022-10-11T01:38:54.682Z,100.00
2022-10-11T01:41:41.709Z,100.00
2022-10-11T01:44:27.060Z,100.00
2022-10-11T01:47:08.977Z,100.00
2022-10-11T01:49:57.428Z,100.00
2022-10-11T01:52:44.592Z,100.00
2022-10-11T01:55:40.835Z,100.00
2022-10-11T01:58:38.139Z,100.00
2022-10-11T02:01:34.678Z,100.00
2022-10-11T02:04:26.927Z,100.00
2022-10-11T02:07:19.815Z,100.00
2022-10-11T02:10:09.400Z,100.00
2022-10-11T02:12:57.940Z,100.00
2022-10-11T02:15:44.380Z,100.00
2022-10-11T02:18:54.123Z,100.00
2022-10-11T02:21:40.325Z,100.00
2022-10-11T02:24:27.372Z,100.00
2022-10-11T02:27:09.546Z,100.00
2022-10-11T02:34:38.147Z,100.00
2022-10-11T02:37:27.455Z,100.00
2022-10-11T02:45:00.903Z,100.00
2022-10-11T02:47:44.710Z,100.00
2022-10-11T02:50:26.414Z,100.00
2022-10-11T02:53:19.993Z,100.00
2022-10-11T02:56:01.615Z,100.00
2022-10-11T02:59:12.773Z,100.00
2022-10-11T03:01:57.239Z,100.00
2022-10-11T03:04:43.092Z,100.00
2022-10-11T03:07:43.593Z,100.00
2022-10-11T03:10:26.676Z,100.00
2022-10-11T03:13:12.891Z,100.00
2022-10-11T03:16:03.140Z,100.00
2022-10-11T03:18:49.520Z,100.00
2022-10-11T03:21:32.934Z,100.00
2022-10-11T03:24:15.243Z,100.00
2022-10-11T03:26:58.958Z,100.00
2022-10-11T03:29:53.849Z,100.00
2022-10-11T03:32:36.222Z,100.00
2022-10-11T03:35:31.593Z,100.00
2022-10-11T03:38:16.250Z,100.00
2022-10-11T03:40:59.665Z,100.00
2022-10-11T03:43:46.921Z,100.00
2022-10-11T03:47:04.789Z,100.00
2022-10-11T03:49:51.862Z,100.00
2022-10-11T03:52:35.228Z,100.00
2022-10-11T03:55:19.391Z,100.00
2022-10-11T04:02:06.719Z,100.00
2022-10-11T04:13:21.009Z,100.00
2022-10-11T04:16:08.678Z,100.00
2022-10-11T04:19:15.704Z,100.00
2022-10-11T04:21:59.283Z,100.00
2022-10-11T04:24:41.938Z,100.00
2022-10-11T04:27:28.120Z,100.00
2022-10-11T04:30:30.346Z,100.00
2022-10-11T04:33:26.682Z,100.00
2022-10-11T04:36:21.578Z,100.00
2022-10-11T04:39:19.811Z,100.00
2022-10-11T04:42:02.063Z,100.00
2022-10-11T04:44:52.059Z,100.00
2022-10-11T04:47:36.670Z,100.00
2022-10-11T04:50:25.048Z,100.00
2022-10-11T04:53:40.551Z,100.00
2022-10-11T04:56:38.371Z,100.00
2022-10-11T04:59:26.454Z,100.00
2022-10-11T05:02:14.452Z,100.00
2022-10-11T05:05:29.251Z,100.00
2022-10-11T05:08:14.136Z,100.00
2022-10-11T05:11:03.723Z,100.00
2022-10-11T05:13:52.277Z,100.00
2022-10-11T05:16:40.757Z,100.00
2022-10-11T05:19:54.672Z,100.00
2022-10-11T05:22:46.847Z,100.00
2022-10-11T05:25:44.409Z,100.00
2022-10-11T05:28:52.206Z,100.00
2022-10-11T05:31:51.600Z,100.00
2022-10-11T05:34:42.964Z,100.00
2022-10-11T05:37:38.978Z,100.00
2022-10-11T05:40:26.097Z,100.00
2022-10-11T05:43:17.752Z,100.00
2022-10-11T05:46:06.480Z,100.00
2022-10-11T05:48:57.377Z,100.00
2022-10-11T05:53:29.612Z,100.00
2022-10-11T05:56:22.189Z,100.00
2022-10-11T05:59:08.714Z,100.00
2022-10-11T06:01:55.715Z,100.00
2022-10-11T06:04:42.976Z,100.00
2022-10-11T06:07:38.960Z,100.00
2022-10-11T06:10:32.720Z,100.00
2022-10-11T06:13:47.241Z,100.00
2022-10-11T06:17:06.818Z,100.00
2022-10-11T06:20:26.868Z,100.00
2022-10-11T06:23:46.242Z,100.00
2022-10-11T06:26:47.895Z,100.00
2022-10-11T06:29:59.068Z,100.00
2022-10-11T06:34:20.117Z,100.00
2022-10-11T06:37:38.055Z,100.00
2022-10-11T06:41:01.822Z,100.00
2022-10-11T06:45:27.701Z,99.74
2022-10-11T07:01:55.106Z,96.89
2022-10-11T07:09:45.536Z,94.12
2022-10-11T07:43:33.292Z,88.45
2022-10-11T07:46:33.893Z,88.02
2022-10-11T07:49:54.627Z,87.24
2022-10-11T07:53:44.699Z,87.55
2022-10-11T08:08:25.166Z,86.46
2022-10-11T08:11:54.618Z,84.80
2022-10-11T08:25:26.167Z,82.42
2022-10-11T08:29:17.328Z,80.80
2022-10-11T08:32:28.920Z,81.11
2022-10-11T08:35:20.682Z,79.40
2022-10-11T08:38:39.460Z,78.55
2022-10-11T10:10:33.658Z,58.36
2022-10-11T10:13:22.744Z,58.06
2022-10-11T10:16:00.055Z,58.26
2022-10-11T10:18:36.450Z,58.50
2022-10-11T10:21:14.023Z,57.70
2022-10-11T10:23:58.861Z,59.54
2022-10-11T10:30:21.522Z,56.97
2022-10-11T10:32:57.927Z,56.04
2022-10-11T10:35:34.338Z,57.43
2022-10-11T10:38:30.663Z,57.29
2022-10-11T10:41:04.607Z,55.47
2022-10-11T10:43:41.440Z,55.51
2022-10-11T10:46:46.005Z,54.11
2022-10-11T10:52:56.150Z,53.68
2022-10-11T10:55:35.657Z,53.82
2022-10-11T10:58:23.042Z,53.71
2022-10-11T11:01:00.403Z,53.80
2022-10-11T11:03:39.430Z,53.91
2022-10-11T11:06:14.699Z,54.13
2022-10-11T11:09:05.450Z,54.51
2022-10-11T11:11:52.382Z,53.96
2022-10-11T11:19:07.314Z,54.63
2022-10-11T11:21:52.353Z,53.92
2022-10-11T11:24:47.525Z,53.61
2022-10-11T11:27:37.345Z,53.00
2022-10-11T11:30:13.650Z,52.91
2022-10-11T11:32:58.244Z,52.95
2022-10-11T11:35:35.199Z,53.29
2022-10-11T11:38:41.935Z,53.11
2022-10-11T11:41:19.336Z,51.22
2022-10-11T11:47:16.366Z,49.84
2022-10-11T11:50:02.268Z,50.68
2022-10-11T11:52:47.266Z,50.95
2022-10-11T11:55:24.759Z,50.75
2022-10-11T11:58:07.273Z,50.45
2022-10-11T12:00:55.011Z,50.99
2022-10-11T12:03:30.572Z,51.71
2022-10-11T12:06:23.753Z,51.13
2022-10-11T12:09:04.174Z,51.45
2022-10-11T12:11:50.078Z,50.60
2022-10-11T12:14:41.164Z,49.93
2022-10-11T12:17:18.685Z,49.85
2022-10-11T12:20:11.882Z,49.21
2022-10-11T12:22:54.094Z,50.06
2022-10-11T12:25:44.443Z,49.79
2022-10-11T12:29:01.357Z,49.57
2022-10-11T12:31:36.218Z,50.05
2022-10-11T12:34:33.673Z,49.38
2022-10-11T12:37:50.736Z,49.43
2022-10-11T12:40:44.083Z,50.06
2022-10-11T12:43:54.282Z,50.71
2022-10-11T12:46:58.099Z,50.45
2022-10-11T12:49:59.659Z,50.72
2022-10-11T12:52:42.021Z,51.42
2022-10-11T12:55:34.893Z,51.38
2022-10-11T12:58:38.585Z,51.28
2022-10-11T13:01:24.041Z,50.53
2022-10-11T13:04:01.769Z,50.78
2022-10-11T13:06:35.256Z,50.14
2022-10-11T13:09:19.099Z,50.12
2022-10-11T13:12:02.330Z,51.25
2022-10-11T13:14:39.788Z,51.67
2022-10-11T13:17:24.179Z,51.67
2022-10-11T13:20:02.186Z,51.93
2022-10-11T13:22:37.124Z,52.76
2022-10-11T13:25:18.252Z,52.25
2022-10-11T13:27:49.865Z,52.44
2022-10-11T13:30:29.654Z,53.23
2022-10-11T13:33:00.729Z,54.20
2022-10-11T13:35:34.106Z,53.93
2022-10-11T13:38:06.283Z,54.76
2022-10-11T13:40:52.567Z,54.65
2022-10-11T13:43:47.691Z,54.83
2022-10-11T13:46:47.627Z,54.65
2022-10-11T13:53:37.235Z,55.19
2022-10-11T14:00:07.244Z,54.91
2022-10-11T14:02:51.997Z,55.91
2022-10-11T14:05:34.248Z,55.83
2022-10-11T14:13:55.568Z,55.71
2022-10-11T14:16:31.469Z,56.52
2022-10-11T14:19:12.033Z,56.37
2022-10-11T14:21:52.794Z,55.86
2022-10-11T14:24:35.717Z,56.67
2022-10-11T14:27:28.211Z,56.86
2022-10-11T14:33:10.391Z,56.59
2022-10-11T14:35:57.331Z,57.95
2022-10-11T14:39:10.157Z,57.60
2022-10-11T14:41:50.887Z,57.59
2022-10-11T14:44:27.869Z,58.36
2022-10-11T14:47:08.638Z,59.17
2022-10-11T14:50:00.261Z,58.99
2022-10-11T14:53:28.532Z,58.67
2022-10-11T14:56:08.753Z,59.23
2022-10-11T15:03:42.209Z,61.85
2022-10-11T15:06:27.236Z,61.95
2022-10-11T15:10:18.795Z,62.66
2022-10-11T15:12:55.929Z,63.77
2022-10-11T15:15:30.952Z,64.54
2022-10-11T15:19:03.701Z,64.38
2022-10-11T15:22:06.244Z,64.29
2022-10-11T15:24:37.227Z,64.02
2022-10-11T15:27:08.988Z,63.97
2022-10-11T15:29:43.614Z,64.70
2022-10-11T15:32:14.286Z,64.42
2022-10-11T15:34:45.112Z,63.70
2022-10-11T15:37:17.520Z,64.30
2022-10-11T15:40:23.845Z,64.72
2022-10-11T15:42:56.530Z,65.75
2022-10-11T15:45:29.200Z,67.05
2022-10-11T15:49:33.302Z,67.59
2022-10-11T15:52:39.395Z,67.55
2022-10-11T15:55:10.887Z,66.97
2022-10-11T15:57:46.203Z,67.00
2022-10-11T16:00:21.363Z,67.64
2022-10-11T16:02:55.575Z,68.14
2022-10-11T16:05:28.535Z,68.99
2022-10-11T16:07:58.530Z,69.37
2022-10-11T16:10:29.179Z,69.31
2022-10-11T16:13:00.621Z,68.70
2022-10-11T16:15:33.802Z,68.68
2022-10-11T16:18:19.951Z,69.28
2022-10-11T16:21:00.991Z,70.12
2022-10-11T16:23:39.046Z,70.61
2022-10-11T16:26:23.112Z,70.17
2022-10-11T16:28:54.303Z,69.29
2022-10-11T16:31:24.835Z,68.88
2022-10-11T16:34:01.783Z,68.58
2022-10-11T16:36:58.099Z,68.73
2022-10-11T16:39:52.648Z,69.78
2022-10-11T16:43:39.204Z,69.54
2022-10-11T16:47:19.281Z,68.94
2022-10-11T16:51:23.381Z,69.24
2022-10-11T16:58:11.844Z,71.10
2022-10-11T17:00:46.161Z,71.92
2022-10-11T17:03:32.507Z,71.80
2022-10-11T17:11:51.116Z,73.04
2022-10-11T17:14:22.822Z,72.85
2022-10-11T17:17:01.545Z,73.31
2022-10-11T17:19:52.734Z,75.10
2022-10-11T17:22:32.460Z,75.65
2022-10-11T17:25:06.497Z,76.34
2022-10-11T17:27:41.680Z,76.12
2022-10-11T17:30:27.842Z,76.16
2022-10-11T17:33:03.770Z,76.86
2022-10-11T17:35:50.191Z,77.20
2022-10-11T17:38:47.123Z,78.42
2022-10-11T17:41:32.121Z,79.18
2022-10-11T17:44:08.436Z,80.05
2022-10-11T17:46:43.945Z,79.94
2022-10-11T17:49:19.374Z,80.86
2022-10-11T17:51:53.792Z,81.72
2022-10-11T17:54:27.266Z,83.22
2022-10-11T17:57:14.172Z,84.14
2022-10-11T17:59:55.350Z,84.64
2022-10-11T18:02:32.192Z,84.85
2022-10-11T18:05:07.163Z,84.88
2022-10-11T18:07:39.472Z,84.25
2022-10-11T18:10:24.181Z,83.76
2022-10-11T18:13:12.033Z,83.57
2022-10-11T18:16:00.887Z,83.75
2022-10-11T18:18:36.360Z,84.54
2022-10-11T18:21:06.914Z,85.34
2022-10-11T18:23:38.482Z,86.68
2022-10-11T18:26:29.519Z,86.08
2022-10-11T18:29:05.894Z,85.99
2022-10-11T18:39:15.381Z,86.80
2022-10-11T18:49:46.732Z,89.13
2022-10-11T18:52:21.208Z,89.99
2022-10-11T18:54:54.135Z,90.76
2022-10-11T18:57:26.977Z,91.34
2022-10-11T19:00:22.500Z,91.97
2022-10-11T19:03:04.892Z,92.32
2022-10-11T19:05:48.472Z,92.35
2022-10-11T19:08:51.482Z,92.74
2022-10-11T19:23:03.846Z,93.39
2022-10-11T19:25:39.085Z,94.04
2022-10-11T19:28:28.056Z,94.98
2022-10-11T19:31:20.786Z,94.55
2022-10-11T19:38:35.443Z,93.75
2022-10-11T19:41:17.118Z,93.74
2022-10-11T19:44:25.194Z,93.23
2022-10-11T19:47:05.067Z,93.61
2022-10-11T19:49:40.746Z,93.50
2022-10-11T19:52:27.241Z,93.88
2022-10-11T19:56:08.483Z,95.21
2022-10-11T19:59:00.814Z,96.48
2022-10-11T20:07:52.620Z,98.74
2022-10-11T21:09:11.346Z,100.00
2022-10-11T21:12:06.186Z,100.00
2022-10-11T22:40:58.101Z,100.00
2022-10-11T22:44:04.889Z,100.00
2022-10-11T22:55:46.530Z,100.00
2022-10-11T23:03:14.278Z,100.00
2022-10-11T23:06:39.174Z,100.00
2022-10-11T23:10:49.227Z,100.00
2022-10-11T23:14:58.815Z,100.00
2022-10-11T23:18:58.543Z,100.00
2022-10-11T23:23:58.472Z,100.00
2022-10-11T23:27:38.360Z,100.00
2022-10-11T23:31:26.979Z,100.00
2022-10-11T23:34:26.160Z,100.00
2022-10-11T23:37:40.914Z,100.00
2022-10-11T23:40:25.854Z,100.00
2022-10-11T23:43:11.552Z,100.00
2022-10-11T23:46:02.030Z,100.00
2022-10-11T23:49:43.393Z,100.00
2022-10-11T23:52:40.249Z,100.00
2022-10-11T23:55:29.633Z,100.00
2022-10-11T23:58:13.212Z,100.00
